Time,TemperatureF,DewpointF,PressureIn,WindDirection,WindDirectionDegrees,WindSpeedMPH,WindSpeedGustMPH,Humidity,HourlyPrecipIn,Conditions,Clouds,dailyrainin,SoftwareType,DateUTC
2013-04-23 00:01:00,58.0,12.0,29.42,West,278,4.0,-999.0,16,-99.99,,,-99.99,,2013-04-23 06:01:00,
2013-04-23 00:12:00,58.0,12.0,29.42,West,278,4.0,-999.0,16,-99.99,,,-99.99,,2013-04-23 06:12:00,
2013-04-23 00:21:00,58.0,13.0,29.42,West,276,3.0,-999.0,17,-99.99,,,-99.99,,2013-04-23 06:21:00,
2013-04-23 00:32:00,56.0,13.0,29.42,West,276,2.0,-999.0,18,-99.99,,,-99.99,,2013-04-23 06:32:00,
2013-04-23 00:41:00,56.0,13.0,29.42,West,276,2.0,-999.0,18,-99.99,,,-99.99,,2013-04-23 06:41:00,
2013-04-23 00:52:00,56.0,13.0,29.41,West,276,3.0,-999.0,18,-99.99,,,-99.99,,2013-04-23 06:52:00,
2013-04-23 01:01:00,56.0,13.0,29.43,West,281,4.0,-999.0,18,-99.99,,,-99.99,,2013-04-23 07:01:00,
2013-04-23 01:11:00,56.0,13.0,29.43,West,281,4.0,-999.0,18,-99.99,,,-99.99,,2013-04-23 07:11:00,
2013-04-23 01:21:00,54.0,13.0,29.44,West,279,6.0,-999.0,19,-99.99,,,-99.99,,2013-04-23 07:21:00,
2013-04-23 01:32:00,53.0,13.0,29.45,West,274,6.0,-999.0,20,-99.99,,,-99.99,,2013-04-23 07:32:00,
2013-04-23 01:41:00,53.0,13.0,29.45,West,274,6.0,-999.0,20,-99.99,,,-99.99,,2013-04-23 07:41:00,
2013-04-23 01:52:00,53.0,13.0,29.43,WNW,302,4.0,-999.0,20,-99.99,,,-99.99,,2013-04-23 07:52:00,
2013-04-23 02:01:00,53.0,13.0,29.43,WNW,297,3.0,-999.0,20,-99.99,,,-99.99,,2013-04-23 08:01:00,
2013-04-23 02:11:00,53.0,13.0,29.43,WNW,297,3.0,-999.0,20,-99.99,,,-99.99,,2013-04-23 08:11:00,
2013-04-23 02:21:00,53.0,14.0,29.44,WNW,283,5.0,-999.0,21,-99.99,,,-99.99,,2013-04-23 08:21:00,
2013-04-23 02:31:00,52.0,14.0,29.44,WNW,287,5.0,-999.0,22,-99.99,,,-99.99,,2013-04-23 08:31:00,
2013-04-23 02:42:00,52.0,14.0,29.44,WNW,287,5.0,-999.0,22,-99.99,,,-99.99,,2013-04-23 08:42:00,
2013-04-23 02:52:00,52.0,14.0,29.43,WNW,300,7.0,-999.0,22,-99.99,,,-99.99,,2013-04-23 08:52:00,
2013-04-23 03:01:00,52.0,14.0,29.42,WNW,294,9.0,-999.0,22,-99.99,,,-99.99,,2013-04-23 09:01:00,
2013-04-23 03:11:00,52.0,14.0,29.42,WNW,294,9.0,-999.0,22,-99.99,,,-99.99,,2013-04-23 09:11:00,
2013-04-23 03:21:00,51.0,16.0,29.43,WNW,293,6.0,-999.0,24,-99.99,,,-99.99,,2013-04-23 09:21:00,
2013-04-23 03:32:00,50.0,16.0,29.45,WNW,294,8.0,-999.0,25,-99.99,,,-99.99,,2013-04-23 09:32:00,
2013-04-23 03:42:00,50.0,16.0,29.45,WNW,294,8.0,-999.0,25,-99.99,,,-99.99,,2013-04-23 09:42:00,
2013-04-23 03:53:00,50.0,17.0,29.44,WSW,253,6.0,-999.0,27,-99.99,,,-99.99,,2013-04-23 09:53:00,
2013-04-23 04:02:00,49.0,18.0,29.45,West,265,5.0,-999.0,29,-99.99,,,-99.99,,2013-04-23 10:02:00,
2013-04-23 04:12:00,49.0,18.0,29.45,West,265,5.0,-999.0,29,-99.99,,,-99.99,,2013-04-23 10:12:00,
2013-04-23 04:22:00,49.0,19.0,29.45,WNW,297,10.0,-999.0,30,-99.99,,,-99.99,,2013-04-23 10:22:00,
2013-04-23 04:32:00,48.0,20.0,29.47,WNW,302,9.0,-999.0,33,-99.99,,,-99.99,,2013-04-23 10:32:00,
2013-04-23 04:42:00,48.0,20.0,29.47,WNW,302,9.0,-999.0,33,-99.99,,,-99.99,,2013-04-23 10:42:00,
2013-04-23 04:52:00,47.0,21.0,29.47,NNW,330,8.0,-999.0,36,-99.99,,,-99.99,,2013-04-23 10:52:00,
2013-04-23 05:02:00,47.0,23.0,29.49,NW,315,8.0,-999.0,38,-99.99,,,-99.99,,2013-04-23 11:02:00,
2013-04-23 05:12:00,47.0,23.0,29.49,NW,315,8.0,-999.0,38,-99.99,,,-99.99,,2013-04-23 11:12:00,
2013-04-23 05:21:00,46.0,22.0,29.50,NW,304,6.0,-999.0,39,-99.99,,,-99.99,,2013-04-23 11:21:00,
2013-04-23 05:32:00,46.0,23.0,29.50,NW,323,6.0,-999.0,40,-99.99,,,-99.99,,2013-04-23 11:32:00,
2013-04-23 05:42:00,46.0,23.0,29.50,NW,323,6.0,-999.0,40,-99.99,,,-99.99,,2013-04-23 11:42:00,
2013-04-23 05:52:00,46.0,23.0,29.52,NW,325,8.0,-999.0,40,-99.99,,,-99.99,,2013-04-23 11:52:00,
2013-04-23 06:01:00,45.0,22.0,29.53,NW,322,8.0,-999.0,40,-99.99,,,-99.99,,2013-04-23 12:01:00,
2013-04-23 06:12:00,45.0,22.0,29.53,NW,322,8.0,-999.0,40,-99.99,,,-99.99,,2013-04-23 12:12:00,
2013-04-23 06:22:00,45.0,22.0,29.54,WNW,302,8.0,-999.0,39,-99.99,,,-99.99,,2013-04-23 12:22:00,
2013-04-23 06:32:00,45.0,22.0,29.54,WNW,293,7.0,-999.0,39,-99.99,,,-99.99,,2013-04-23 12:32:00,
2013-04-23 06:41:00,45.0,22.0,29.54,WNW,293,7.0,-999.0,39,-99.99,,,-99.99,,2013-04-23 12:41:00,
2013-04-23 06:52:00,44.0,21.0,29.55,WNW,290,5.0,-999.0,39,-99.99,,,-99.99,,2013-04-23 12:52:00,
2013-04-23 07:01:00,44.0,21.0,29.57,NW,308,7.0,-999.0,39,-99.99,,,-99.99,,2013-04-23 13:01:00,
2013-04-23 07:11:00,44.0,21.0,29.57,NW,308,7.0,-999.0,39,-99.99,,,-99.99,,2013-04-23 13:11:00,
2013-04-23 07:21:00,44.0,21.0,29.57,WNW,302,8.0,-999.0,39,-99.99,,,-99.99,,2013-04-23 13:21:00,
2013-04-23 07:31:00,45.0,20.0,29.58,WNW,282,8.0,-999.0,37,-99.99,,,-99.99,,2013-04-23 13:31:00,
2013-04-23 07:41:00,45.0,20.0,29.58,WNW,282,8.0,-999.0,37,-99.99,,,-99.99,,2013-04-23 13:41:00,
2013-04-23 07:52:00,46.0,20.0,29.60,WNW,285,8.0,-999.0,35,-99.99,,,-99.99,,2013-04-23 13:52:00,
2013-04-23 08:01:00,46.0,19.0,29.61,WSW,258,8.0,-999.0,33,-99.99,,,-99.99,,2013-04-23 14:01:00,
2013-04-23 08:11:00,46.0,19.0,29.61,WSW,258,8.0,-999.0,33,-99.99,,,-99.99,,2013-04-23 14:11:00,
2013-04-23 08:22:00,47.0,16.0,29.60,WNW,285,9.0,-999.0,29,-99.99,,,-99.99,,2013-04-23 14:22:00,
2013-04-23 08:31:00,48.0,17.0,29.61,West,278,10.0,-999.0,29,-99.99,,,-99.99,,2013-04-23 14:31:00,
2013-04-23 08:41:00,48.0,17.0,29.61,West,278,10.0,-999.0,29,-99.99,,,-99.99,,2013-04-23 14:41:00,
2013-04-23 08:52:00,48.0,17.0,29.61,West,278,10.0,-999.0,29,-99.99,,,-99.99,,2013-04-23 14:52:00,
2013-04-23 09:01:00,48.0,17.0,29.61,West,278,10.0,-999.0,29,-99.99,,,-99.99,,2013-04-23 15:01:00,
2013-04-23 09:11:00,48.0,16.0,29.62,WNW,284,11.0,-999.0,28,-99.99,,,-99.99,,2013-04-23 15:11:00,
2013-04-23 09:21:00,49.0,16.0,29.62,West,271,11.0,-999.0,26,-99.99,,,-99.99,,2013-04-23 15:21:00,
2013-04-23 09:32:00,50.0,15.0,29.62,WSW,257,9.0,-999.0,24,-99.99,,,-99.99,,2013-04-23 15:32:00,
2013-04-23 09:43:00,50.0,15.0,29.62,WSW,257,9.0,-999.0,24,-99.99,,,-99.99,,2013-04-23 15:43:00,
2013-04-23 09:53:00,50.0,15.0,29.62,WSW,257,9.0,-999.0,24,-99.99,,,-99.99,,2013-04-23 15:53:00,
2013-04-23 10:02:00,51.0,14.0,29.65,West,264,14.0,-999.0,22,-99.99,,,-99.99,,2013-04-23 16:02:00,
2013-04-23 10:12:00,51.0,14.0,29.65,West,264,14.0,-999.0,22,-99.99,,,-99.99,,2013-04-23 16:12:00,
2013-04-23 10:23:00,51.0,12.0,29.64,WNW,301,13.0,-999.0,21,-99.99,,,-99.99,,2013-04-23 16:23:00,
2013-04-23 10:33:00,51.0,12.0,29.64,WNW,301,13.0,-999.0,21,-99.99,,,-99.99,,2013-04-23 16:33:00,
2013-04-23 10:42:00,51.0,12.0,29.64,WNW,301,13.0,-999.0,21,-99.99,,,-99.99,,2013-04-23 16:42:00,
2013-04-23 10:52:00,51.0,14.0,29.65,WSW,246,13.0,-999.0,22,-99.99,,,-99.99,,2013-04-23 16:52:00,
2013-04-23 11:02:00,51.0,14.0,29.66,WSW,247,11.0,-999.0,22,-99.99,,,-99.99,,2013-04-23 17:02:00,
2013-04-23 11:11:00,51.0,14.0,29.66,WSW,247,11.0,-999.0,22,-99.99,,,-99.99,,2013-04-23 17:11:00,
2013-04-23 11:22:00,51.0,12.0,29.67,SW,231,14.0,-999.0,21,-99.99,,,-99.99,,2013-04-23 17:22:00,
2013-04-23 11:32:00,52.0,13.0,29.66,WSW,257,16.0,-999.0,21,-99.99,,,-99.99,,2013-04-23 17:32:00,
2013-04-23 11:42:00,52.0,13.0,29.66,WSW,257,16.0,-999.0,21,-99.99,,,-99.99,,2013-04-23 17:42:00,
2013-04-23 11:53:00,53.0,13.0,29.66,WSW,257,13.0,-999.0,20,-99.99,,,-99.99,,2013-04-23 17:53:00,
2013-04-23 12:02:00,53.0,12.0,29.67,West,278,11.0,-999.0,19,-99.99,,,-99.99,,2013-04-23 18:02:00,
2013-04-23 12:12:00,53.0,12.0,29.67,West,278,11.0,-999.0,19,-99.99,,,-99.99,,2013-04-23 18:12:00,
2013-04-23 12:22:00,53.0,12.0,29.68,NW,304,14.0,-999.0,19,-99.99,,,-99.99,,2013-04-23 18:22:00,
2013-04-23 12:32:00,52.0,13.0,29.68,WSW,258,14.0,-999.0,21,-99.99,,,-99.99,,2013-04-23 18:32:00,
2013-04-23 12:42:00,52.0,13.0,29.68,WSW,258,14.0,-999.0,21,-99.99,,,-99.99,,2013-04-23 18:42:00,
2013-04-23 12:52:00,53.0,13.0,29.67,WSW,247,15.0,-999.0,20,-99.99,,,-99.99,,2013-04-23 18:52:00,
2013-04-23 13:02:00,53.0,12.0,29.69,SW,218,15.0,-999.0,19,-99.99,,,-99.99,,2013-04-23 19:02:00,
2013-04-23 13:11:00,53.0,12.0,29.69,SW,218,15.0,-999.0,19,-99.99,,,-99.99,,2013-04-23 19:11:00,
2013-04-23 13:21:00,54.0,13.0,29.68,WNW,282,16.0,-999.0,19,-99.99,,,-99.99,,2013-04-23 19:21:00,
2013-04-23 13:32:00,54.0,11.0,29.68,West,262,18.0,-999.0,18,-99.99,,,-99.99,,2013-04-23 19:32:00,
2013-04-23 13:42:00,54.0,11.0,29.68,West,262,18.0,-999.0,18,-99.99,,,-99.99,,2013-04-23 19:42:00,
2013-04-23 13:52:00,53.0,9.0,29.68,West,274,18.0,-999.0,17,-99.99,,,-99.99,,2013-04-23 19:52:00,
2013-04-23 14:01:00,53.0,9.0,29.70,WSW,256,18.0,-999.0,17,-99.99,,,-99.99,,2013-04-23 20:01:00,
2013-04-23 14:11:00,53.0,9.0,29.70,WSW,256,18.0,-999.0,17,-99.99,,,-99.99,,2013-04-23 20:11:00,
2013-04-23 14:21:00,55.0,8.0,29.70,West,274,14.0,-999.0,15,-99.99,,,-99.99,,2013-04-23 20:21:00,
2013-04-23 14:31:00,55.0,7.0,29.71,West,278,16.0,-999.0,14,-99.99,,,-99.99,,2013-04-23 20:31:00,
2013-04-23 14:42:00,55.0,7.0,29.71,West,278,16.0,-999.0,14,-99.99,,,-99.99,,2013-04-23 20:42:00,
2013-04-23 14:51:00,54.0,7.0,29.70,West,262,17.0,-999.0,15,-99.99,,,-99.99,,2013-04-23 20:51:00,
2013-04-23 15:01:00,55.0,7.0,29.71,West,263,17.0,-999.0,14,-99.99,,,-99.99,,2013-04-23 21:01:00,
2013-04-23 15:11:00,55.0,7.0,29.71,West,263,17.0,-999.0,14,-99.99,,,-99.99,,2013-04-23 21:11:00,
2013-04-23 15:21:00,55.0,7.0,29.71,West,276,16.0,-999.0,14,-99.99,,,-99.99,,2013-04-23 21:21:00,
2013-04-23 15:32:00,55.0,7.0,29.71,WSW,257,16.0,-999.0,14,-99.99,,,-99.99,,2013-04-23 21:32:00,
2013-04-23 15:43:00,55.0,7.0,29.71,WSW,257,16.0,-999.0,14,-99.99,,,-99.99,,2013-04-23 21:43:00,
2013-04-23 15:52:00,55.0,7.0,29.71,West,278,14.0,-999.0,14,-99.99,,,-99.99,,2013-04-23 21:52:00,
2013-04-23 16:02:00,56.0,7.0,29.72,WNW,282,12.0,-999.0,14,-99.99,,,-99.99,,2013-04-23 22:02:00,
2013-04-23 16:12:00,56.0,7.0,29.72,WNW,282,12.0,-999.0,14,-99.99,,,-99.99,,2013-04-23 22:12:00,
2013-04-23 16:22:00,56.0,6.0,29.72,West,274,17.0,-999.0,13,-99.99,,,-99.99,,2013-04-23 22:22:00,
2013-04-23 16:33:00,56.0,6.0,29.72,WNW,293,16.0,-999.0,13,-99.99,,,-99.99,,2013-04-23 22:33:00,
2013-04-23 16:42:00,56.0,6.0,29.72,WNW,293,16.0,-999.0,13,-99.99,,,-99.99,,2013-04-23 22:42:00,
2013-04-23 16:52:00,56.0,6.0,29.72,WSW,252,12.0,-999.0,13,-99.99,,,-99.99,,2013-04-23 22:52:00,
2013-04-23 17:02:00,57.0,5.0,29.73,WNW,293,10.0,-999.0,12,-99.99,,,-99.99,,2013-04-23 23:02:00,
2013-04-23 17:12:00,57.0,5.0,29.73,WNW,293,10.0,-999.0,12,-99.99,,,-99.99,,2013-04-23 23:12:00,
2013-04-23 17:22:00,56.0,4.0,29.73,WNW,299,12.0,-999.0,12,-99.99,,,-99.99,,2013-04-23 23:22:00,
2013-04-23 17:31:00,56.0,2.0,29.74,NW,315,12.0,-999.0,11,-99.99,,,-99.99,,2013-04-23 23:31:00,
2013-04-23 17:42:00,56.0,2.0,29.74,NW,315,12.0,-999.0,11,-99.99,,,-99.99,,2013-04-23 23:42:00,
2013-04-23 17:52:00,56.0,-2.0,29.75,West,272,13.0,-999.0,9,-99.99,,,-99.99,,2013-04-23 23:52:00,
2013-04-23 18:01:00,56.0,0.0,29.77,NW,304,11.0,-999.0,10,-99.99,,,-99.99,,2013-04-24 00:01:00,
2013-04-23 18:11:00,56.0,0.0,29.77,NW,304,11.0,-999.0,10,-99.99,,,-99.99,,2013-04-24 00:11:00,
2013-04-23 18:21:00,55.0,1.0,29.77,NW,308,12.0,-999.0,11,-99.99,,,-99.99,,2013-04-24 00:21:00,
2013-04-23 18:32:00,55.0,1.0,29.78,WNW,293,11.0,-999.0,11,-99.99,,,-99.99,,2013-04-24 00:32:00,
2013-04-23 18:41:00,55.0,1.0,29.78,WNW,293,11.0,-999.0,11,-99.99,,,-99.99,,2013-04-24 00:41:00,
2013-04-23 18:51:00,54.0,-1.0,29.78,WNW,302,11.0,-999.0,10,-99.99,,,-99.99,,2013-04-24 00:51:00,
2013-04-23 19:01:00,54.0,-1.0,29.78,NNW,329,10.0,-999.0,10,-99.99,,,-99.99,,2013-04-24 01:01:00,
2013-04-23 19:11:00,54.0,-1.0,29.78,NNW,329,10.0,-999.0,10,-99.99,,,-99.99,,2013-04-24 01:11:00,
2013-04-23 19:21:00,54.0,-1.0,29.78,NW,309,10.0,-999.0,10,-99.99,,,-99.99,,2013-04-24 01:21:00,
2013-04-23 19:32:00,53.0,-4.0,29.80,NW,316,10.0,-999.0,9,-99.99,,,-99.99,,2013-04-24 01:32:00,
2013-04-23 19:42:00,53.0,-4.0,29.80,NW,316,10.0,-999.0,9,-99.99,,,-99.99,,2013-04-24 01:42:00,
2013-04-23 19:52:00,51.0,-4.0,29.81,NNW,331,8.0,-999.0,10,-99.99,,,-99.99,,2013-04-24 01:52:00,
2013-04-23 20:02:00,50.0,-4.0,29.80,NW,315,6.0,-999.0,10,-99.99,,,-99.99,,2013-04-24 02:02:00,
2013-04-23 20:13:00,50.0,-4.0,29.80,NW,315,6.0,-999.0,10,-99.99,,,-99.99,,2013-04-24 02:13:00,
2013-04-23 20:23:00,48.0,-6.0,29.81,NNW,328,3.0,-999.0,10,-99.99,,,-99.99,,2013-04-24 02:23:00,
2013-04-23 20:44:00,47.0,-5.0,29.83,NNW,331,4.0,-999.0,11,-99.99,,,-99.99,,2013-04-24 02:44:00,
2013-04-23 20:53:00,45.0,-6.0,29.84,NNW,331,2.0,-999.0,11,-99.99,,,-99.99,,2013-04-24 02:53:00,
2013-04-23 21:03:00,46.0,-7.0,29.83,NW,309,6.0,-999.0,10,-99.99,,,-99.99,,2013-04-24 03:03:00,
2013-04-23 21:12:00,46.0,-7.0,29.83,NW,309,6.0,-999.0,10,-99.99,,,-99.99,,2013-04-24 03:12:00,
2013-04-23 21:44:00,44.0,-7.0,29.85,NW,307,1.0,-999.0,11,-99.99,,,-99.99,,2013-04-24 03:44:00,
2013-04-23 22:02:00,42.0,-9.0,29.86,NNW,328,4.0,-999.0,11,-99.99,,,-99.99,,2013-04-24 04:02:00,
2013-04-23 22:12:00,42.0,-9.0,29.86,NNW,328,4.0,-999.0,11,-99.99,,,-99.99,,2013-04-24 04:12:00,
2013-04-23 22:22:00,42.0,-9.0,29.88,NNW,328,3.0,-999.0,11,-99.99,,,-99.99,,2013-04-24 04:22:00,
2013-04-23 22:33:00,40.0,-7.0,29.89,NNW,328,2.0,-999.0,13,-99.99,,,-99.99,,2013-04-24 04:33:00,
2013-04-23 22:43:00,40.0,-7.0,29.89,NNW,328,2.0,-999.0,13,-99.99,,,-99.99,,2013-04-24 04:43:00,
2013-04-23 22:52:00,40.0,-5.0,29.89,NNW,328,1.0,-999.0,14,-99.99,,,-99.99,,2013-04-24 04:52:00,
2013-04-23 23:02:00,40.0,-4.0,29.90,NNW,328,3.0,-999.0,15,-99.99,,,-99.99,,2013-04-24 05:02:00,
2013-04-23 23:12:00,40.0,-4.0,29.90,NNW,328,3.0,-999.0,15,-99.99,,,-99.99,,2013-04-24 05:12:00,
2013-04-23 23:21:00,38.0,-4.0,29.92,NNW,340,1.0,-999.0,16,-99.99,,,-99.99,,2013-04-24 05:21:00,
2013-04-23 23:32:00,38.0,-4.0,29.91,NE,56,3.0,-999.0,16,-99.99,,,-99.99,,2013-04-24 05:32:00,
2013-04-23 23:42:00,38.0,-4.0,29.91,NE,56,3.0,-999.0,16,-99.99,,,-99.99,,2013-04-24 05:42:00,
2013-04-23 23:51:00,37.0,-4.0,29.92,ENE,57,5.0,-999.0,17,-99.99,,,-99.99,,2013-04-24 05:51:00,